createdAt,value
2023-03-30T00:00:51.865Z,67.96
2023-03-30T00:03:19.606Z,68.16
2023-03-30T00:05:51.718Z,68.08
2023-03-30T00:08:19.259Z,68.35
2023-03-30T00:10:46.534Z,68.11
2023-03-30T00:13:13.869Z,67.59
2023-03-30T00:15:41.349Z,67.57
2023-03-30T00:18:09.448Z,67.51
2023-03-30T00:20:37.565Z,67.34
2023-03-30T00:23:04.618Z,67.76
2023-03-30T00:25:31.385Z,67.44
2023-03-30T00:27:57.904Z,68.08
2023-03-30T00:30:24.693Z,67.92
2023-03-30T00:32:51.423Z,68.42
2023-03-30T00:35:18.189Z,68.44
2023-03-30T00:37:45.790Z,69.03
2023-03-30T00:40:19.123Z,69.91
2023-03-30T00:42:45.817Z,70.74
2023-03-30T00:45:23.361Z,71.42
2023-03-30T00:48:10.094Z,72.59
2023-03-30T00:50:43.285Z,73.21
2023-03-30T00:53:17.385Z,74.07
2023-03-30T00:55:46.355Z,74.43
2023-03-30T00:58:15.834Z,74.24
2023-03-30T01:00:47.099Z,74.27
2023-03-30T01:03:24.988Z,74.78
2023-03-30T01:05:52.842Z,75.14
2023-03-30T01:08:20.515Z,75.59
2023-03-30T01:10:47.184Z,75.63
2023-03-30T01:13:15.164Z,76.48
2023-03-30T01:15:52.013Z,76.84
2023-03-30T01:18:44.868Z,76.72
2023-03-30T01:21:39.316Z,77.25
2023-03-30T01:24:11.717Z,78.36
2023-03-30T01:26:44.170Z,78.53
2023-03-30T01:29:34.292Z,79.65
2023-03-30T01:32:06.843Z,79.92
2023-03-30T01:34:57.919Z,80.68
2023-03-30T01:37:39.905Z,81.47
2023-03-30T01:40:13.493Z,81.38
2023-03-30T01:43:07.302Z,82.18
2023-03-30T01:46:05.093Z,82.45
2023-03-30T01:48:47.165Z,83.75
2023-03-30T01:51:37.610Z,83.06
2023-03-30T01:54:19.460Z,83.14
2023-03-30T01:56:51.736Z,84.12
2023-03-30T01:59:29.839Z,84.79
2023-03-30T02:02:04.239Z,85.43
2023-03-30T02:04:36.253Z,84.67
2023-03-30T02:07:17.796Z,83.64
2023-03-30T02:09:46.882Z,82.67
2023-03-30T02:12:13.963Z,82.26
2023-03-30T02:14:42.076Z,82.32
2023-03-30T02:17:23.071Z,81.84
2023-03-30T02:19:50.376Z,80.94
2023-03-30T02:22:18.931Z,80.66
2023-03-30T02:24:48.344Z,81.20
2023-03-30T02:27:16.774Z,81.35
2023-03-30T02:29:45.135Z,82.04
2023-03-30T02:32:19.505Z,82.87
2023-03-30T02:34:52.757Z,84.23
2023-03-30T02:37:30.814Z,84.33
2023-03-30T02:40:13.447Z,85.01
2023-03-30T02:42:39.954Z,86.06
2023-03-30T02:45:22.755Z,87.81
2023-03-30T02:48:08.093Z,89.56
2023-03-30T02:50:50.808Z,89.73
2023-03-30T02:53:34.138Z,90.67
2023-03-30T02:56:13.208Z,91.28
2023-03-30T02:58:55.256Z,91.66
2023-03-30T03:01:37.113Z,91.69
2023-03-30T03:04:06.437Z,93.01
2023-03-30T03:06:33.147Z,93.63
2023-03-30T03:08:59.762Z,93.45
2023-03-30T03:11:26.417Z,93.85
2023-03-30T03:13:53.475Z,94.52
2023-03-30T03:16:20.588Z,95.14
2023-03-30T03:18:47.323Z,95.91
2023-03-30T03:21:14.358Z,96.77
2023-03-30T03:23:41.238Z,96.96
2023-03-30T03:26:08.213Z,96.65
2023-03-30T03:28:35.049Z,96.94
2023-03-30T03:31:02.645Z,97.77
2023-03-30T03:33:32.037Z,97.87
2023-03-30T03:36:00.435Z,98.85
2023-03-30T03:38:27.957Z,98.46
2023-03-30T03:40:57.605Z,99.34
2023-03-30T03:43:25.168Z,99.77
2023-03-30T03:45:53.050Z,100.00
2023-03-30T03:48:22.831Z,100.00
2023-03-30T03:50:57.336Z,100.00
2023-03-30T03:53:26.479Z,99.82
2023-03-30T03:55:54.162Z,100.00
2023-03-30T03:58:21.406Z,100.00
2023-03-30T04:00:48.397Z,100.00
2023-03-30T04:03:15.633Z,100.00
2023-03-30T04:05:42.840Z,100.00
2023-03-30T04:08:12.782Z,100.00
2023-03-30T04:10:41.362Z,100.00
2023-03-30T04:13:08.009Z,100.00
2023-03-30T04:15:36.137Z,100.00
2023-03-30T04:18:05.419Z,100.00
2023-03-30T04:20:33.195Z,100.00
2023-03-30T04:23:01.985Z,100.00
2023-03-30T04:25:29.306Z,99.67
2023-03-30T04:27:56.802Z,98.16
2023-03-30T04:30:23.952Z,95.98
2023-03-30T04:33:11.052Z,95.87
2023-03-30T04:35:37.760Z,96.40
2023-03-30T04:38:04.312Z,96.81
2023-03-30T04:40:31.135Z,97.46
2023-03-30T04:43:03.812Z,97.55
2023-03-30T04:45:31.273Z,97.64
2023-03-30T04:47:57.933Z,98.01
2023-03-30T04:50:24.627Z,98.33
2023-03-30T04:52:51.304Z,98.53
2023-03-30T04:55:18.026Z,98.41
2023-03-30T04:57:44.745Z,98.82
2023-03-30T05:00:13.112Z,97.48
2023-03-30T05:02:39.739Z,97.90
2023-03-30T05:05:06.924Z,97.35
2023-03-30T05:07:33.497Z,95.74
2023-03-30T05:10:00.173Z,95.40
2023-03-30T05:12:26.752Z,95.40
2023-03-30T05:14:53.305Z,95.48
2023-03-30T05:17:19.889Z,95.99
2023-03-30T05:19:47.030Z,96.13
2023-03-30T05:22:15.141Z,96.90
2023-03-30T05:24:41.784Z,97.56
2023-03-30T05:27:08.362Z,98.83
2023-03-30T05:29:34.968Z,98.71
2023-03-30T05:32:01.516Z,98.59
2023-03-30T05:34:28.175Z,98.56
2023-03-30T05:36:54.822Z,98.84
2023-03-30T05:39:23.383Z,98.42
2023-03-30T05:41:50.028Z,99.08
2023-03-30T05:44:16.940Z,99.61
2023-03-30T05:46:43.565Z,100.00
2023-03-30T05:49:10.424Z,100.00
2023-03-30T05:51:36.984Z,100.00
2023-03-30T05:54:03.817Z,100.00
2023-03-30T05:56:30.489Z,100.00
2023-03-30T05:58:57.171Z,100.00
2023-03-30T06:01:26.271Z,100.00
2023-03-30T06:03:53.339Z,100.00
2023-03-30T06:06:20.180Z,100.00
2023-03-30T06:08:46.944Z,100.00
2023-03-30T06:11:14.122Z,100.00
2023-03-30T06:13:41.141Z,100.00
2023-03-30T06:16:08.133Z,100.00
2023-03-30T06:18:34.676Z,100.00
2023-03-30T06:21:07.271Z,100.00
2023-03-30T06:23:35.878Z,100.00
2023-03-30T06:26:02.604Z,100.00
2023-03-30T06:28:29.719Z,100.00
2023-03-30T06:30:56.418Z,100.00
2023-03-30T06:33:23.337Z,100.00
2023-03-30T06:35:51.677Z,100.00
2023-03-30T06:38:19.826Z,100.00
2023-03-30T06:40:46.544Z,100.00
2023-03-30T06:43:18.820Z,100.00
2023-03-30T06:45:51.301Z,100.00
2023-03-30T06:48:19.784Z,100.00
2023-03-30T06:50:47.489Z,100.00
2023-03-30T06:53:14.215Z,100.00
2023-03-30T06:55:42.845Z,100.00
2023-03-30T06:58:10.064Z,100.00
2023-03-30T07:00:37.314Z,99.91
2023-03-30T07:03:04.222Z,98.72
2023-03-30T07:05:31.295Z,98.70
2023-03-30T07:07:58.699Z,95.80
2023-03-30T07:10:25.765Z,93.73
2023-03-30T07:12:52.559Z,94.24
2023-03-30T07:15:19.370Z,93.78
2023-03-30T07:17:46.141Z,91.67
2023-03-30T07:20:16.057Z,91.68
2023-03-30T07:22:43.217Z,90.70
2023-03-30T07:25:10.973Z,91.17
2023-03-30T07:27:38.268Z,88.57
2023-03-30T07:30:20.646Z,87.98
2023-03-30T07:32:51.006Z,83.23
2023-03-30T07:35:18.494Z,81.25
2023-03-30T07:37:45.321Z,80.51
2023-03-30T07:40:12.748Z,77.65
2023-03-30T07:42:40.424Z,76.24
2023-03-30T07:45:08.227Z,73.66
2023-03-30T07:47:34.842Z,72.54
2023-03-30T07:50:01.451Z,72.92
2023-03-30T07:52:28.073Z,71.68
2023-03-30T07:54:55.627Z,71.06
2023-03-30T07:57:22.975Z,70.09
2023-03-30T07:59:49.665Z,71.00
2023-03-30T08:02:17.453Z,70.67
2023-03-30T08:04:44.818Z,68.90
2023-03-30T08:07:12.609Z,66.98
2023-03-30T08:09:39.385Z,67.32
2023-03-30T08:12:07.365Z,65.88
2023-03-30T08:14:34.001Z,66.14
2023-03-30T08:17:00.782Z,65.33
2023-03-30T08:19:28.645Z,64.70
2023-03-30T08:21:56.968Z,63.23
2023-03-30T08:24:23.993Z,63.28
2023-03-30T08:26:50.962Z,62.84
2023-03-30T08:29:18.851Z,63.26
2023-03-30T08:31:45.793Z,62.77
2023-03-30T08:34:12.505Z,62.72
2023-03-30T08:36:39.576Z,63.42
2023-03-30T08:39:06.366Z,62.72
2023-03-30T08:42:08.493Z,61.93
2023-03-30T08:44:46.694Z,61.37
2023-03-30T08:47:17.797Z,61.35
2023-03-30T08:50:00.894Z,61.73
2023-03-30T08:52:27.779Z,62.66
2023-03-30T08:54:54.816Z,63.10
2023-03-30T08:57:45.520Z,63.86
2023-03-30T09:00:52.856Z,63.07
2023-03-30T09:03:32.053Z,63.84
2023-03-30T09:06:10.793Z,63.80
2023-03-30T09:08:37.703Z,62.84
2023-03-30T09:11:12.140Z,62.41
2023-03-30T09:13:44.154Z,61.58
2023-03-30T09:16:26.214Z,59.38
2023-03-30T09:18:58.108Z,57.12
2023-03-30T09:21:28.833Z,56.48
2023-03-30T09:24:01.065Z,56.74
2023-03-30T09:26:34.548Z,56.79
2023-03-30T09:29:13.955Z,56.87
2023-03-30T09:31:51.938Z,57.93
2023-03-30T09:34:36.677Z,58.13
2023-03-30T09:37:09.059Z,58.65
2023-03-30T09:39:36.664Z,59.06
2023-03-30T09:42:11.794Z,59.68
2023-03-30T09:44:47.324Z,59.91
2023-03-30T09:47:23.024Z,60.43
2023-03-30T09:49:55.736Z,59.61
2023-03-30T09:52:26.328Z,58.80
2023-03-30T09:54:53.162Z,58.69
2023-03-30T09:57:31.987Z,58.49
2023-03-30T10:00:00.898Z,58.15
2023-03-30T10:02:31.235Z,58.31
2023-03-30T10:05:04.277Z,58.69
2023-03-30T10:07:40.816Z,58.46
2023-03-30T10:10:31.317Z,58.74
2023-03-30T10:13:16.754Z,58.68
2023-03-30T10:15:47.097Z,58.88
2023-03-30T10:18:28.719Z,58.07
2023-03-30T10:21:06.829Z,58.20
2023-03-30T10:23:40.080Z,58.73
2023-03-30T10:26:13.411Z,58.45
2023-03-30T10:28:41.259Z,59.19
2023-03-30T10:31:16.198Z,59.49
2023-03-30T10:33:44.930Z,60.02
2023-03-30T10:36:14.749Z,59.95
2023-03-30T10:38:42.465Z,59.65
2023-03-30T10:41:16.288Z,59.19
2023-03-30T10:43:44.364Z,58.97
2023-03-30T10:46:19.787Z,58.48
2023-03-30T10:49:12.868Z,58.35
2023-03-30T10:51:51.600Z,58.83
2023-03-30T10:54:21.250Z,58.43
2023-03-30T10:56:57.336Z,58.66
2023-03-30T10:59:32.947Z,58.59
2023-03-30T11:02:24.071Z,59.00
2023-03-30T11:05:00.191Z,58.81
2023-03-30T11:07:36.124Z,58.38
2023-03-30T11:10:16.251Z,58.35
2023-03-30T11:12:49.868Z,58.28
2023-03-30T11:15:26.532Z,58.07
2023-03-30T11:18:04.331Z,57.82
2023-03-30T11:20:35.978Z,57.81
2023-03-30T11:23:34.325Z,57.77
2023-03-30T11:26:03.063Z,57.23
2023-03-30T11:28:58.167Z,57.57
2023-03-30T11:32:00.475Z,58.50
2023-03-30T11:34:35.981Z,58.94
2023-03-30T11:37:12.730Z,58.88
2023-03-30T11:39:45.567Z,58.35
2023-03-30T11:42:31.422Z,59.16
2023-03-30T11:44:58.783Z,59.27
2023-03-30T11:47:37.029Z,58.59
2023-03-30T11:50:12.914Z,59.06
2023-03-30T11:52:50.508Z,59.33
2023-03-30T11:55:24.705Z,59.80
2023-03-30T11:57:57.321Z,60.21
2023-03-30T12:00:23.922Z,60.05
2023-03-30T12:03:01.857Z,59.71
2023-03-30T12:05:35.554Z,59.44
2023-03-30T12:08:56.778Z,59.88
2023-03-30T12:11:57.653Z,59.55
2023-03-30T12:14:40.788Z,59.79
2023-03-30T12:17:43.432Z,59.52
2023-03-30T12:20:10.052Z,59.22
2023-03-30T12:22:51.804Z,59.10
2023-03-30T12:25:24.621Z,59.26
2023-03-30T12:28:09.170Z,58.76
2023-03-30T12:30:54.948Z,58.25
2023-03-30T12:33:51.830Z,58.40
2023-03-30T12:36:39.989Z,58.21
2023-03-30T12:39:32.752Z,58.73
2023-03-30T12:42:34.867Z,59.01
2023-03-30T12:45:07.636Z,59.24
2023-03-30T12:47:46.276Z,59.09
2023-03-30T12:50:28.007Z,58.96
2023-03-30T12:53:25.566Z,58.71
2023-03-30T12:56:07.298Z,58.85
2023-03-30T12:58:52.392Z,58.93
2023-03-30T13:01:57.308Z,59.08
2023-03-30T13:04:27.506Z,58.83
2023-03-30T13:06:58.425Z,59.29
2023-03-30T13:09:29.314Z,59.37
2023-03-30T13:11:55.840Z,59.47
2023-03-30T13:14:40.060Z,59.52
2023-03-30T13:17:12.169Z,59.19
2023-03-30T13:20:29.966Z,58.95
2023-03-30T13:23:31.813Z,58.96
2023-03-30T13:25:58.803Z,58.25
2023-03-30T13:28:37.366Z,58.10
2023-03-30T13:31:24.373Z,58.04
2023-03-30T13:34:02.755Z,57.78
2023-03-30T13:36:38.082Z,57.88
2023-03-30T13:39:32.459Z,57.98
2023-03-30T13:42:29.997Z,58.19
2023-03-30T13:45:16.700Z,58.33
2023-03-30T13:47:57.405Z,58.31
2023-03-30T13:50:31.254Z,58.13
2023-03-30T13:53:00.318Z,58.10
2023-03-30T13:55:37.910Z,58.20
2023-03-30T13:58:11.965Z,57.90
2023-03-30T14:00:57.245Z,58.10
2023-03-30T14:03:27.575Z,58.02
2023-03-30T14:06:02.738Z,57.84
2023-03-30T14:08:37.985Z,57.77
2023-03-30T14:11:27.037Z,57.51
2023-03-30T14:13:54.113Z,57.41
2023-03-30T14:16:26.349Z,57.86
2023-03-30T14:19:05.746Z,58.09
2023-03-30T14:21:36.815Z,58.43
2023-03-30T14:24:04.799Z,58.09
2023-03-30T14:26:31.772Z,58.04
2023-03-30T14:29:03.794Z,58.52
2023-03-30T14:31:42.067Z,58.44
2023-03-30T14:34:27.097Z,58.33
2023-03-30T14:37:00.409Z,58.53
2023-03-30T14:39:30.089Z,58.40
2023-03-30T14:41:58.901Z,58.51
2023-03-30T14:44:25.592Z,58.28
2023-03-30T14:46:55.575Z,58.22
2023-03-30T14:49:29.202Z,58.17
2023-03-30T14:52:08.896Z,58.05
2023-03-30T14:54:37.433Z,57.94
2023-03-30T14:57:07.560Z,58.60
2023-03-30T14:59:39.806Z,58.61
2023-03-30T15:02:20.045Z,58.37
2023-03-30T15:04:47.065Z,58.32
2023-03-30T15:07:16.463Z,58.46
2023-03-30T15:09:48.404Z,58.42
2023-03-30T15:12:23.638Z,58.17
2023-03-30T15:14:51.452Z,58.33
2023-03-30T15:17:22.200Z,58.38
2023-03-30T15:19:52.265Z,58.02
2023-03-30T15:22:27.792Z,58.06
2023-03-30T15:24:56.873Z,57.89
2023-03-30T15:27:24.112Z,57.89
2023-03-30T15:29:51.082Z,58.42
2023-03-30T15:32:39.482Z,58.20
2023-03-30T15:35:15.764Z,58.21
2023-03-30T15:38:02.331Z,58.33
2023-03-30T15:40:29.090Z,58.35
2023-03-30T15:43:15.934Z,58.32
2023-03-30T15:45:59.710Z,58.32
2023-03-30T15:48:34.685Z,58.38
2023-03-30T15:51:07.942Z,58.40
2023-03-30T15:53:41.845Z,58.72
2023-03-30T15:56:19.060Z,58.79
2023-03-30T15:58:45.648Z,59.49
2023-03-30T16:01:15.023Z,59.46
2023-03-30T16:03:51.175Z,59.43
2023-03-30T16:06:20.292Z,59.52
2023-03-30T16:08:47.004Z,59.48
2023-03-30T16:11:18.771Z,59.42
2023-03-30T16:13:48.163Z,59.33
2023-03-30T16:16:18.138Z,59.51
2023-03-30T16:18:45.447Z,59.58
2023-03-30T16:21:12.536Z,59.51
2023-03-30T16:23:39.378Z,59.61
2023-03-30T16:26:08.099Z,59.76
2023-03-30T16:28:34.646Z,59.78
2023-03-30T16:31:06.476Z,59.92
2023-03-30T16:33:33.361Z,60.04
2023-03-30T16:35:59.976Z,60.14
2023-03-30T16:38:26.717Z,60.15
2023-03-30T16:40:57.432Z,60.64
2023-03-30T16:43:25.111Z,60.51
2023-03-30T16:45:51.815Z,60.85
2023-03-30T16:48:18.504Z,61.14
2023-03-30T16:50:49.164Z,61.19
2023-03-30T16:53:16.225Z,61.05
2023-03-30T16:55:43.014Z,60.98
2023-03-30T16:58:13.862Z,61.22
2023-03-30T17:00:46.276Z,61.09
2023-03-30T17:03:13.534Z,61.03
2023-03-30T17:05:40.847Z,61.22
2023-03-30T17:08:19.488Z,61.07
2023-03-30T17:10:46.332Z,60.88
2023-03-30T17:13:13.051Z,60.84
2023-03-30T17:15:40.488Z,61.11
2023-03-30T17:18:12.608Z,60.99
2023-03-30T17:20:42.990Z,61.40
2023-03-30T17:23:10.590Z,61.42
2023-03-30T17:25:39.962Z,61.72
2023-03-30T17:28:10.076Z,61.64
2023-03-30T17:30:40.632Z,61.51
2023-03-30T17:33:10.842Z,61.47
2023-03-30T17:35:38.583Z,61.73
2023-03-30T17:38:08.914Z,61.64
2023-03-30T17:40:39.546Z,61.56
2023-03-30T17:43:07.538Z,61.46
2023-03-30T17:45:35.621Z,61.92
2023-03-30T17:48:02.805Z,61.65
2023-03-30T17:50:46.042Z,61.76
2023-03-30T17:53:17.400Z,62.07
2023-03-30T17:55:46.016Z,61.80
2023-03-30T17:58:24.412Z,61.75
2023-03-30T18:00:53.017Z,61.88
2023-03-30T18:03:21.779Z,62.25
2023-03-30T18:05:50.354Z,62.29
2023-03-30T18:08:21.307Z,62.23
2023-03-30T18:10:56.586Z,62.18
2023-03-30T18:13:24.354Z,62.25
2023-03-30T18:15:54.786Z,61.90
2023-03-30T18:18:25.189Z,62.28
2023-03-30T18:20:56.936Z,62.33
2023-03-30T18:23:23.836Z,62.46
2023-03-30T18:25:51.133Z,62.61
2023-03-30T18:28:22.881Z,62.56
2023-03-30T18:30:51.229Z,62.58
2023-03-30T18:33:17.886Z,62.57
2023-03-30T18:35:46.346Z,62.80
2023-03-30T18:38:15.515Z,62.77
2023-03-30T18:40:48.458Z,62.77
2023-03-30T18:43:15.392Z,62.37
2023-03-30T18:45:48.611Z,62.11
2023-03-30T18:48:18.356Z,62.29
2023-03-30T18:50:50.832Z,62.13
2023-03-30T18:53:20.485Z,62.01
2023-03-30T18:55:50.529Z,61.82
2023-03-30T18:58:26.381Z,61.89
2023-03-30T19:00:54.763Z,62.00
2023-03-30T19:03:22.742Z,62.35
2023-03-30T19:05:50.299Z,62.98
2023-03-30T19:08:19.719Z,63.05
2023-03-30T19:10:48.802Z,63.09
2023-03-30T19:13:17.731Z,63.26
2023-03-30T19:15:45.710Z,63.30
2023-03-30T19:18:13.977Z,63.28
2023-03-30T19:20:42.044Z,63.09
2023-03-30T19:23:12.725Z,63.64
2023-03-30T19:25:40.068Z,63.78
2023-03-30T19:28:07.157Z,62.94
2023-03-30T19:30:37.619Z,63.25
2023-03-30T19:33:08.730Z,63.06
2023-03-30T19:35:35.815Z,63.03
2023-03-30T19:38:02.460Z,62.74
2023-03-30T19:40:29.121Z,63.15
2023-03-30T19:42:56.333Z,63.17
2023-03-30T19:45:23.757Z,63.33
2023-03-30T19:47:51.452Z,63.02
2023-03-30T19:50:20.351Z,62.51
2023-03-30T19:52:49.951Z,63.13
2023-03-30T19:55:20.603Z,63.36
2023-03-30T19:57:47.305Z,63.39
2023-03-30T20:00:16.322Z,63.67
2023-03-30T20:02:45.535Z,63.43
2023-03-30T20:05:15.945Z,63.53
2023-03-30T20:07:44.405Z,63.97
2023-03-30T20:10:14.454Z,63.91
2023-03-30T20:12:41.096Z,63.98
2023-03-30T20:15:09.893Z,64.50
2023-03-30T20:17:38.366Z,64.68
2023-03-30T20:20:09.251Z,64.71
2023-03-30T20:22:38.225Z,64.68
2023-03-30T20:25:07.562Z,64.65
2023-03-30T20:27:35.251Z,64.56
2023-03-30T20:30:02.570Z,64.83
2023-03-30T20:32:29.485Z,64.81
2023-03-30T20:34:56.102Z,64.55
2023-03-30T20:37:23.013Z,64.23
2023-03-30T20:39:50.607Z,64.58
2023-03-30T20:42:18.347Z,64.72
2023-03-30T20:44:50.243Z,64.90
2023-03-30T20:47:18.025Z,65.73
2023-03-30T20:49:46.314Z,65.96
2023-03-30T20:52:13.339Z,66.20
2023-03-30T20:54:41.221Z,66.25
2023-03-30T20:57:08.107Z,66.24
2023-03-30T20:59:34.818Z,66.20
2023-03-30T21:02:01.393Z,66.54
2023-03-30T21:04:28.869Z,66.63
2023-03-30T21:06:55.954Z,66.52
2023-03-30T21:09:22.671Z,66.48
2023-03-30T21:11:49.235Z,66.58
2023-03-30T21:14:15.910Z,66.24
2023-03-30T21:16:43.062Z,66.06
2023-03-30T21:19:10.861Z,66.31
2023-03-30T21:21:38.023Z,66.21
2023-03-30T21:24:06.335Z,65.56
2023-03-30T21:26:33.237Z,65.95
2023-03-30T21:28:59.822Z,65.91
2023-03-30T21:31:26.647Z,66.08
2023-03-30T21:33:53.565Z,65.43
2023-03-30T21:36:20.248Z,65.73
2023-03-30T21:38:46.921Z,66.03
2023-03-30T21:41:14.907Z,66.57
2023-03-30T21:43:44.299Z,65.89
2023-03-30T21:46:20.559Z,66.05
2023-03-30T21:48:49.914Z,66.21
2023-03-30T21:51:23.213Z,66.32
2023-03-30T21:53:51.693Z,66.60
2023-03-30T21:56:19.974Z,66.80
2023-03-30T21:58:47.080Z,66.93
2023-03-30T22:01:13.880Z,67.49
2023-03-30T22:03:42.290Z,67.66
2023-03-30T22:06:10.948Z,67.98
2023-03-30T22:08:37.839Z,68.09
2023-03-30T22:11:11.315Z,68.27
2023-03-30T22:13:38.035Z,68.85
2023-03-30T22:16:13.611Z,69.29
2023-03-30T22:18:41.397Z,69.54
2023-03-30T22:21:11.399Z,69.73
2023-03-30T22:23:38.043Z,69.76
2023-03-30T22:26:04.869Z,69.75
2023-03-30T22:28:31.774Z,69.72
2023-03-30T22:30:58.356Z,69.50
2023-03-30T22:33:26.786Z,70.22
2023-03-30T22:35:54.398Z,70.50
2023-03-30T22:38:20.971Z,70.10
2023-03-30T22:40:47.550Z,69.98
2023-03-30T22:43:14.308Z,70.88
2023-03-30T22:45:42.879Z,70.95
2023-03-30T22:48:09.552Z,71.27
2023-03-30T22:50:36.922Z,71.54
2023-03-30T22:53:03.530Z,72.04
2023-03-30T22:55:30.229Z,71.97
2023-03-30T22:57:57.056Z,72.11
2023-03-30T23:00:24.727Z,72.16
2023-03-30T23:02:52.123Z,72.11
2023-03-30T23:05:21.366Z,72.22
2023-03-30T23:07:49.603Z,72.08
2023-03-30T23:10:23.172Z,72.80
2023-03-30T23:12:49.750Z,73.38
2023-03-30T23:15:18.449Z,73.79
2023-03-30T23:17:47.455Z,74.38
2023-03-30T23:20:15.397Z,74.96
2023-03-30T23:22:42.497Z,75.22
2023-03-30T23:25:09.939Z,75.22
2023-03-30T23:27:37.658Z,75.14
2023-03-30T23:30:05.658Z,74.71
2023-03-30T23:32:33.931Z,73.72
2023-03-30T23:35:00.863Z,73.97
2023-03-30T23:37:30.329Z,75.14
2023-03-30T23:40:02.042Z,75.55
2023-03-30T23:42:29.216Z,76.34
2023-03-30T23:44:55.997Z,76.42
2023-03-30T23:47:22.640Z,76.84
2023-03-30T23:49:49.280Z,77.28
2023-03-30T23:52:15.980Z,78.68
2023-03-30T23:54:42.680Z,77.43
2023-03-30T23:57:09.770Z,78.00
2023-03-30T23:59:37.054Z,77.87
